createdAt,value
2022-09-05T00:01:41.365Z,99498.91
2022-09-05T00:04:25.321Z,99501.91
2022-09-05T00:07:03.176Z,99497.69
2022-09-05T00:09:45.218Z,99502.34
2022-09-05T00:12:13.783Z,99504.31
2022-09-05T00:15:17.392Z,99492.06
2022-09-05T00:20:21.979Z,99498.84
2022-09-05T00:24:20.906Z,99500.81
2022-09-05T00:24:36.442Z,99507.41
2022-09-05T00:27:19.801Z,99505.91
2022-09-05T00:31:07.269Z,99501.66
2022-09-05T00:33:17.211Z,99491.44
2022-09-05T00:36:21.225Z,99501.41
2022-09-05T00:39:02.973Z,99498.19
2022-09-05T00:41:34.176Z,99504.50
2022-09-05T00:44:03.214Z,99504.50
2022-09-05T00:46:34.838Z,99507.44
2022-09-05T00:49:13.366Z,99505.75
2022-09-05T00:52:00.866Z,99505.06
2022-09-05T00:54:46.209Z,99513.47
2022-09-05T00:57:35.887Z,99513.78
2022-09-05T01:00:17.946Z,99510.41
2022-09-05T01:03:10.253Z,99512.50
2022-09-05T01:06:04.848Z,99511.78
2022-09-05T01:09:07.942Z,99516.56
2022-09-05T01:11:46.912Z,99516.69
2022-09-05T01:14:39.981Z,99523.00
2022-09-05T01:17:44.134Z,99523.44
2022-09-05T01:20:43.809Z,99515.69
2022-09-05T01:23:18.379Z,99529.47
2022-09-05T01:26:20.428Z,99521.59
2022-09-05T01:29:18.418Z,99518.38
2022-09-05T01:32:10.404Z,99522.44
2022-09-05T01:35:03.972Z,99529.59
2022-09-05T01:37:57.347Z,99531.56
2022-09-05T01:40:44.301Z,99529.19
2022-09-05T01:43:39.912Z,99536.47
2022-09-05T01:46:17.847Z,99536.75
2022-09-05T01:49:37.293Z,99534.34
2022-09-05T01:52:57.135Z,99529.44
2022-09-05T01:56:04.353Z,99526.06
2022-09-05T01:58:46.741Z,99525.34
2022-09-05T02:01:44.894Z,99519.16
2022-09-05T02:04:24.877Z,99525.50
2022-09-05T02:07:30.204Z,99524.06
2022-09-05T02:10:07.232Z,99519.03
2022-09-05T02:12:58.426Z,99524.34
2022-09-05T02:15:52.290Z,99526.31
2022-09-05T02:18:48.450Z,99522.06
2022-09-05T02:21:33.503Z,99522.22
2022-09-05T02:24:29.490Z,99514.38
2022-09-05T02:28:04.004Z,99519.81
2022-09-05T02:30:33.992Z,99515.03
2022-09-05T02:33:03.593Z,99510.69
2022-09-05T02:35:53.326Z,99505.50
2022-09-05T02:41:40.507Z,99515.44
2022-09-05T02:45:11.149Z,99509.69
2022-09-05T02:45:20.006Z,99507.16
2022-09-05T02:47:52.097Z,99500.41
2022-09-05T02:57:23.937Z,99501.66
2022-09-05T02:57:41.945Z,99504.59
2022-09-05T02:57:42.130Z,99501.34
2022-09-05T02:59:53.777Z,99499.81
2022-09-05T03:02:27.267Z,99497.28
2022-09-05T03:05:04.754Z,99494.72
2022-09-05T03:08:02.436Z,99498.38
2022-09-05T03:10:56.774Z,99503.00
2022-09-05T03:13:48.979Z,99503.97
2022-09-05T03:16:47.167Z,99507.91
2022-09-05T03:19:33.116Z,99511.78
2022-09-05T03:22:23.114Z,99504.19
2022-09-05T03:25:24.173Z,99508.78
2022-09-05T03:27:53.465Z,99506.25
2022-09-05T03:30:26.148Z,99511.72
2022-09-05T03:33:08.285Z,99510.59
2022-09-05T03:35:59.470Z,99516.78
2022-09-05T03:38:31.595Z,99515.25
2022-09-05T03:41:09.661Z,99520.09
2022-09-05T03:43:54.470Z,99508.75
2022-09-05T03:46:40.642Z,99519.66
2022-09-05T03:50:40.175Z,99513.63
2022-09-05T03:57:10.993Z,99512.91
2022-09-05T03:57:24.630Z,99509.09
2022-09-05T03:58:11.928Z,99507.66
2022-09-05T04:01:22.671Z,99511.28
2022-09-05T04:08:10.062Z,99518.56
2022-09-05T04:08:16.626Z,99510.13
2022-09-05T04:09:59.291Z,99519.09
2022-09-05T04:12:47.311Z,99517.38
2022-09-05T04:15:34.518Z,99513.88
2022-09-05T04:18:11.706Z,99520.06
2022-09-05T04:20:47.912Z,99520.31
2022-09-05T04:23:29.478Z,99526.63
2022-09-05T04:26:27.060Z,99527.00
2022-09-05T04:29:04.211Z,99527.13
2022-09-05T04:31:39.783Z,99536.81
2022-09-05T04:34:43.079Z,99538.75
2022-09-05T04:37:10.980Z,99539.03
2022-09-05T04:39:37.704Z,99540.00
2022-09-05T04:42:38.556Z,99543.63
2022-09-05T04:45:17.510Z,99543.63
2022-09-05T04:47:55.037Z,99547.25
2022-09-05T04:50:24.962Z,99545.56
2022-09-05T04:53:20.097Z,99542.91
2022-09-05T04:55:51.416Z,99549.19
2022-09-05T04:59:25.608Z,99544.88
2022-09-05T05:06:01.607Z,99555.75
2022-09-05T05:06:11.031Z,99556.47
2022-09-05T05:07:33.133Z,99558.41
2022-09-05T05:11:57.765Z,99554.78
2022-09-05T05:18:03.864Z,99566.38
2022-09-05T05:18:15.635Z,99562.03
2022-09-05T05:19:05.134Z,99567.13
2022-09-05T05:21:34.352Z,99569.50
2022-09-05T05:24:12.997Z,99573.84
2022-09-05T05:26:56.924Z,99572.63
2022-09-05T05:29:36.699Z,99570.56
2022-09-05T05:32:04.970Z,99571.97
2022-09-05T05:34:41.636Z,99573.44
2022-09-05T05:37:25.277Z,99577.41
2022-09-05T05:40:05.229Z,99572.53
2022-09-05T05:42:32.780Z,99572.00
2022-09-05T05:44:59.874Z,99580.31
2022-09-05T05:47:36.061Z,99583.44
2022-09-05T05:50:23.928Z,99587.38
2022-09-05T05:52:59.618Z,99582.38
2022-09-05T05:56:05.382Z,99588.91
2022-09-05T05:58:50.198Z,99594.56
2022-09-05T06:01:37.379Z,99594.16
2022-09-05T06:04:45.132Z,99592.66
2022-09-05T06:08:39.954Z,99591.28
2022-09-05T06:14:52.494Z,99591.88
2022-09-05T06:15:02.642Z,99592.16
2022-09-05T06:17:28.241Z,99589.22
2022-09-05T06:22:06.614Z,99594.75
2022-09-05T06:23:41.667Z,99591.97
2022-09-05T06:26:49.410Z,99587.25
2022-09-05T06:29:55.672Z,99588.13
2022-09-05T06:32:56.893Z,99581.00
2022-09-05T06:35:37.989Z,99581.97
2022-09-05T06:38:13.501Z,99583.13
2022-09-05T06:40:53.499Z,99583.28
2022-09-05T06:43:32.244Z,99585.72
2022-09-05T06:46:41.578Z,99584.16
2022-09-05T06:49:30.644Z,99590.78
2022-09-05T06:52:28.560Z,99581.19
2022-09-05T06:55:17.785Z,99589.63
2022-09-05T06:58:05.592Z,99582.38
2022-09-05T07:00:34.054Z,99583.59
2022-09-05T07:03:19.180Z,99584.53
2022-09-05T07:05:58.766Z,99580.22
2022-09-05T07:08:48.195Z,99574.53
2022-09-05T07:11:25.651Z,99578.00
2022-09-05T07:14:09.461Z,99580.56
2022-09-05T07:16:55.111Z,99588.53
2022-09-05T07:19:28.600Z,99583.38
2022-09-05T07:22:47.925Z,99579.91
2022-09-05T07:25:30.360Z,99585.38
2022-09-05T07:28:29.806Z,99579.75
2022-09-05T07:31:09.122Z,99585.31
2022-09-05T07:33:39.403Z,99577.75
2022-09-05T07:36:10.672Z,99580.72
2022-09-05T07:38:54.859Z,99582.91
2022-09-05T07:41:35.030Z,99578.34
2022-09-05T07:44:22.279Z,99587.56
2022-09-05T07:46:56.287Z,99581.69
2022-09-05T07:49:28.690Z,99572.63
2022-09-05T07:57:02.241Z,99575.03
2022-09-05T07:57:10.686Z,99564.97
2022-09-05T07:57:52.241Z,99570.72
2022-09-05T08:00:27.105Z,99571.34
2022-09-05T08:03:08.469Z,99573.16
2022-09-05T08:05:43.831Z,99572.09
2022-09-05T08:08:16.562Z,99570.88
2022-09-05T08:11:22.137Z,99572.38
2022-09-05T08:13:42.675Z,99565.72
2022-09-05T08:16:17.533Z,99568.09
2022-09-05T08:18:50.205Z,99571.22
2022-09-05T08:21:48.833Z,99568.47
2022-09-05T08:24:48.740Z,99577.13
2022-09-05T08:27:24.390Z,99571.47
2022-09-05T08:30:26.131Z,99571.31
2022-09-05T08:33:10.453Z,99572.47
2022-09-05T08:36:01.645Z,99567.25
2022-09-05T08:38:40.638Z,99568.22
2022-09-05T08:41:07.547Z,99560.31
2022-09-05T08:46:35.641Z,99564.66
2022-09-05T08:46:49.033Z,99566.44
2022-09-05T08:49:39.431Z,99555.72
2022-09-05T08:52:22.856Z,99563.91
2022-09-05T08:55:11.183Z,99557.22
2022-09-05T08:57:47.004Z,99556.00
2022-09-05T09:00:24.569Z,99555.25
2022-09-05T09:03:11.846Z,99552.28
2022-09-05T09:06:12.499Z,99539.13
2022-09-05T09:08:43.105Z,99542.78
2022-09-05T09:11:22.041Z,99543.13
2022-09-05T09:14:30.125Z,99539.59
2022-09-05T09:17:16.077Z,99540.69
2022-09-05T09:19:58.570Z,99537.81
2022-09-05T09:22:34.936Z,99537.03
2022-09-05T09:25:12.044Z,99536.94
2022-09-05T09:28:48.673Z,99532.81
2022-09-05T09:30:41.641Z,99521.47
2022-09-05T09:33:15.263Z,99520.41
2022-09-05T09:35:59.462Z,99513.47
2022-09-05T09:39:11.923Z,99514.56
2022-09-05T09:41:55.628Z,99512.53
2022-09-05T09:44:46.734Z,99512.25
2022-09-05T09:47:19.074Z,99508.00
2022-09-05T09:50:20.833Z,99509.78
2022-09-05T09:53:13.256Z,99499.75
2022-09-05T09:56:10.862Z,99500.69
2022-09-05T09:59:06.418Z,99502.88
2022-09-05T10:04:29.477Z,99494.47
2022-09-05T10:11:00.443Z,99491.91
2022-09-05T10:11:09.108Z,99492.69
2022-09-05T10:11:54.347Z,99478.41
2022-09-05T10:14:49.408Z,99473.03
2022-09-05T10:17:27.323Z,99476.63
2022-09-05T10:20:13.310Z,99479.38
2022-09-05T10:22:45.579Z,99476.44
2022-09-05T10:25:47.148Z,99473.50
2022-09-05T10:28:43.067Z,99468.53
2022-09-05T10:33:24.249Z,99468.50
2022-09-05T10:35:14.036Z,99464.75
2022-09-05T10:37:18.921Z,99464.56
2022-09-05T10:39:51.310Z,99466.84
2022-09-05T10:42:30.190Z,99453.28
2022-09-05T10:44:57.801Z,99455.16
2022-09-05T10:47:42.752Z,99455.16
2022-09-05T10:50:36.135Z,99453.91
2022-09-05T10:53:15.339Z,99449.69
2022-09-05T10:56:00.509Z,99425.41
2022-09-05T10:59:17.905Z,99432.47
2022-09-05T11:02:27.083Z,99428.25
2022-09-05T11:04:46.636Z,99426.19
2022-09-05T11:07:54.238Z,99425.47
2022-09-05T11:10:51.205Z,99424.75
2022-09-05T11:13:39.533Z,99424.16
2022-09-05T11:16:20.478Z,99423.81
2022-09-05T11:19:29.926Z,99412.56
2022-09-05T11:22:13.823Z,99415.38
2022-09-05T11:24:57.262Z,99420.03
2022-09-05T11:27:36.938Z,99414.28
2022-09-05T11:30:07.855Z,99416.31
2022-09-05T11:38:35.500Z,99421.44
2022-09-05T11:39:51.149Z,99411.88
2022-09-05T11:40:04.704Z,99406.97
2022-09-05T11:41:57.821Z,99406.19
2022-09-05T11:44:27.376Z,99404.53
2022-09-05T11:47:28.216Z,99400.88
2022-09-05T11:49:49.289Z,99397.63
2022-09-05T11:52:40.725Z,99398.16
2022-09-05T11:55:36.790Z,99401.88
2022-09-05T11:58:53.797Z,99397.81
2022-09-05T12:01:44.163Z,99401.53
2022-09-05T12:04:39.141Z,99394.25
2022-09-05T12:07:31.657Z,99379.13
2022-09-05T12:10:46.838Z,99381.41
2022-09-05T12:13:48.055Z,99372.16
2022-09-05T12:16:20.319Z,99373.72
2022-09-05T12:19:18.674Z,99365.13
2022-09-05T12:22:16.470Z,99354.13
2022-09-05T12:25:18.731Z,99351.66
2022-09-05T12:28:40.436Z,99346.50
2022-09-05T12:32:58.075Z,99341.84
2022-09-05T12:36:12.246Z,99332.56
2022-09-05T12:39:52.163Z,99329.56
2022-09-05T12:41:34.468Z,99325.69
2022-09-05T12:44:36.697Z,99323.56
2022-09-05T12:46:09.585Z,99317.44
2022-09-05T12:49:07.200Z,99314.50
2022-09-05T12:51:47.106Z,99325.75
2022-09-05T12:54:34.664Z,99320.94
2022-09-05T13:00:56.197Z,99312.53
2022-09-05T13:03:01.345Z,99311.56
2022-09-05T13:03:09.658Z,99316.16
2022-09-05T13:06:05.366Z,99309.13
2022-09-05T13:08:59.529Z,99320.34
2022-09-05T13:14:47.710Z,99319.00
2022-09-05T13:14:55.288Z,99316.63
2022-09-05T13:17:16.672Z,99303.97
2022-09-05T13:19:51.202Z,99305.22
2022-09-05T13:22:24.064Z,99311.00
2022-09-05T13:25:07.346Z,99307.72
2022-09-05T13:27:40.803Z,99311.69
2022-09-05T13:31:24.835Z,99310.28
2022-09-05T13:38:19.331Z,99300.28
2022-09-05T13:38:29.295Z,99294.09
2022-09-05T13:39:11.635Z,99288.38
2022-09-05T13:41:46.454Z,99276.53
2022-09-05T13:44:27.347Z,99269.66
2022-09-05T13:46:59.088Z,99272.22
2022-09-05T13:49:29.391Z,99263.25
2022-09-05T13:52:26.294Z,99266.28
2022-09-05T13:55:10.672Z,99252.81
2022-09-05T13:57:44.685Z,99251.09
2022-09-05T14:00:27.553Z,99253.78
2022-09-05T14:03:39.137Z,99258.31
2022-09-05T14:06:45.180Z,99253.69
2022-09-05T14:09:43.228Z,99248.88
2022-09-05T14:12:32.146Z,99249.16
2022-09-05T14:15:13.677Z,99233.97
2022-09-05T14:18:58.080Z,99223.81
2022-09-05T14:21:28.927Z,99226.66
2022-09-05T14:24:12.512Z,99220.53
2022-09-05T14:26:48.061Z,99219.97
2022-09-05T14:29:20.523Z,99220.50
2022-09-05T14:37:43.766Z,99220.41
2022-09-05T14:37:46.472Z,99222.06
2022-09-05T14:38:15.271Z,99231.84
2022-09-05T14:41:20.510Z,99228.47
2022-09-05T14:44:08.327Z,99225.38
2022-09-05T14:47:34.972Z,99216.41
2022-09-05T14:50:17.631Z,99211.63
2022-09-05T14:57:23.814Z,99209.06
2022-09-05T15:02:53.353Z,99210.63
2022-09-05T15:03:00.862Z,99210.66
2022-09-05T15:05:15.971Z,99206.75
2022-09-05T15:07:51.137Z,99204.22
2022-09-05T15:12:21.379Z,99201.09
2022-09-05T15:13:24.809Z,99196.41
2022-09-05T15:16:02.413Z,99195.78
2022-09-05T15:18:39.837Z,99205.47
2022-09-05T15:21:38.187Z,99196.66
2022-09-05T15:24:14.185Z,99194.72
2022-09-05T15:27:01.803Z,99198.75
2022-09-05T15:29:34.450Z,99195.59
2022-09-05T15:32:22.534Z,99195.53
2022-09-05T15:34:54.768Z,99198.22
2022-09-05T15:37:22.451Z,99194.56
2022-09-05T15:40:07.690Z,99195.81
2022-09-05T15:42:51.440Z,99198.75
2022-09-05T15:45:25.117Z,99200.75
2022-09-05T15:48:26.561Z,99193.06
2022-09-05T15:51:11.333Z,99196.41
2022-09-05T15:53:40.806Z,99195.31
2022-09-05T15:56:10.088Z,99192.72
2022-09-05T15:58:53.241Z,99191.69
2022-09-05T16:01:59.948Z,99188.16
2022-09-05T16:10:21.498Z,99196.00
2022-09-05T16:10:43.466Z,99191.47
2022-09-05T16:10:48.477Z,99191.69
2022-09-05T16:12:58.928Z,99198.56
2022-09-05T16:16:50.135Z,99192.44
2022-09-05T16:23:24.939Z,99186.34
2022-09-05T16:23:31.433Z,99189.78
2022-09-05T16:24:05.782Z,99183.16
2022-09-05T16:26:46.531Z,99177.97
2022-09-05T16:29:26.762Z,99186.00
2022-09-05T16:31:59.727Z,99176.38
2022-09-05T16:35:10.658Z,99178.03
2022-09-05T16:37:39.534Z,99180.41
2022-09-05T16:40:14.353Z,99169.97
2022-09-05T16:42:51.351Z,99166.94
2022-09-05T16:45:25.135Z,99166.66
2022-09-05T16:48:02.456Z,99170.78
2022-09-05T16:50:35.788Z,99167.03
2022-09-05T16:53:30.444Z,99164.78
2022-09-05T16:56:03.216Z,99162.13
2022-09-05T16:58:49.021Z,99164.81
2022-09-05T17:01:40.557Z,99163.44
2022-09-05T17:04:20.657Z,99163.59
2022-09-05T17:07:17.800Z,99163.47
2022-09-05T17:09:45.985Z,99173.00
2022-09-05T17:12:26.503Z,99177.69
2022-09-05T17:20:20.179Z,99177.34
2022-09-05T17:29:16.124Z,99177.03
2022-09-05T17:29:27.390Z,99179.59
2022-09-05T17:29:46.907Z,99179.25
2022-09-05T17:31:55.915Z,99174.72
2022-09-05T17:34:37.684Z,99176.69
2022-09-05T17:37:14.793Z,99176.91
2022-09-05T17:39:55.170Z,99178.03
2022-09-05T17:42:32.712Z,99179.06
2022-09-05T17:45:25.331Z,99181.47
2022-09-05T17:47:55.650Z,99171.66
2022-09-05T17:50:25.294Z,99178.56
2022-09-05T17:52:56.266Z,99182.16
2022-09-05T17:55:49.136Z,99175.16
2022-09-05T17:58:49.591Z,99182.69
2022-09-05T18:01:26.776Z,99176.09
2022-09-05T18:03:54.358Z,99177.34
2022-09-05T18:06:33.184Z,99183.06
2022-09-05T18:09:08.801Z,99189.53
2022-09-05T18:11:44.622Z,99187.69
2022-09-05T18:14:24.648Z,99196.69
2022-09-05T18:17:37.280Z,99188.59
2022-09-05T18:19:43.893Z,99193.84
2022-09-05T18:22:25.410Z,99192.00
2022-09-05T18:25:13.930Z,99204.13
2022-09-05T18:28:04.767Z,99207.34
2022-09-05T18:30:37.111Z,99215.06
2022-09-05T18:33:55.488Z,99232.59
2022-09-05T18:35:56.064Z,99241.38
2022-09-05T18:38:50.400Z,99247.22
2022-09-05T18:41:21.771Z,99243.88
2022-09-05T18:44:13.928Z,99240.69
2022-09-05T18:46:51.727Z,99244.44
2022-09-05T18:50:25.833Z,99253.13
2022-09-05T18:52:30.694Z,99248.03
2022-09-05T18:56:11.569Z,99252.09
2022-09-05T18:58:22.165Z,99258.03
2022-09-05T19:00:55.333Z,99256.59
2022-09-05T19:03:31.554Z,99252.06
2022-09-05T19:06:35.733Z,99257.06
2022-09-05T19:08:56.558Z,99251.88
2022-09-05T19:11:34.186Z,99260.50
2022-09-05T19:14:26.678Z,99259.91
2022-09-05T19:17:08.267Z,99264.09
2022-09-05T19:20:05.158Z,99258.78
2022-09-05T19:23:10.803Z,99269.13
2022-09-05T19:25:38.289Z,99273.69
2022-09-05T19:36:46.779Z,99270.84
2022-09-05T19:37:03.294Z,99277.28
2022-09-05T19:37:09.436Z,99276.84
2022-09-05T19:37:37.437Z,99281.63
2022-09-05T19:43:28.361Z,99281.84
2022-09-05T19:47:40.605Z,99270.81
2022-09-05T19:47:43.034Z,99272.13
2022-09-05T19:48:19.778Z,99274.91
2022-09-05T19:50:47.348Z,99276.69
2022-09-05T19:53:18.101Z,99277.72
2022-09-05T19:55:45.787Z,99281.44
2022-09-05T19:58:28.998Z,99280.03
2022-09-05T20:01:06.263Z,99266.00
2022-09-05T20:03:38.301Z,99271.78
2022-09-05T20:06:30.290Z,99273.84
2022-09-05T20:09:09.521Z,99258.69
2022-09-05T20:11:45.650Z,99265.56
2022-09-05T20:14:31.015Z,99261.38
2022-09-05T20:17:18.039Z,99271.63
2022-09-05T20:19:45.342Z,99275.81
2022-09-05T20:22:46.773Z,99287.38
2022-09-05T20:25:08.590Z,99275.91
2022-09-05T20:27:37.360Z,99278.25
2022-09-05T20:30:15.011Z,99288.03
2022-09-05T20:32:46.320Z,99287.09
2022-09-05T20:38:04.766Z,99289.59
2022-09-05T20:43:25.327Z,99289.88
2022-09-05T20:43:29.306Z,99286.53
2022-09-05T20:44:22.572Z,99284.31
2022-09-05T20:50:44.389Z,99284.84
2022-09-05T20:54:06.090Z,99274.44
2022-09-05T20:54:16.968Z,99279.28
2022-09-05T20:55:38.508Z,99269.22
2022-09-05T20:58:15.235Z,99268.28
2022-09-05T21:01:20.057Z,99276.16
2022-09-05T21:03:45.460Z,99264.72
2022-09-05T21:06:23.610Z,99258.88
2022-09-05T21:08:52.325Z,99254.69
2022-09-05T21:11:29.558Z,99258.19
2022-09-05T21:13:59.367Z,99259.84
2022-09-05T21:16:31.844Z,99260.25
2022-09-05T21:18:58.514Z,99263.47
2022-09-05T21:21:28.326Z,99258.28
2022-09-05T21:24:17.534Z,99258.63
2022-09-05T21:26:44.791Z,99255.88
2022-09-05T21:29:11.274Z,99261.09
2022-09-05T21:31:43.879Z,99263.16
2022-09-05T21:34:25.911Z,99267.19
2022-09-05T21:36:59.201Z,99268.53
2022-09-05T21:39:41.691Z,99261.47
2022-09-05T21:42:25.508Z,99263.50
2022-09-05T21:47:45.068Z,99257.81
2022-09-05T21:48:00.804Z,99259.00
2022-09-05T21:50:32.050Z,99275.34
2022-09-05T21:54:35.185Z,99269.13
2022-09-05T21:59:21.453Z,99259.56
2022-09-05T21:59:32.701Z,99260.72
2022-09-05T22:01:37.465Z,99269.63
2022-09-05T22:04:10.165Z,99261.81
2022-09-05T22:06:36.878Z,99256.53
2022-09-05T22:09:13.016Z,99263.94
2022-09-05T22:11:40.735Z,99262.63
2022-09-05T22:14:08.978Z,99261.81
2022-09-05T22:16:39.990Z,99263.66
2022-09-05T22:19:12.713Z,99262.63
2022-09-05T22:21:40.149Z,99252.22
2022-09-05T22:24:09.612Z,99261.31
2022-09-05T22:27:11.602Z,99258.31
2022-09-05T22:29:34.543Z,99253.94
2022-09-05T22:32:01.220Z,99258.31
2022-09-05T22:34:30.864Z,99244.56
2022-09-05T22:36:57.599Z,99252.31
2022-09-05T22:39:37.317Z,99241.72
2022-09-05T22:42:10.338Z,99241.72
2022-09-05T22:44:39.390Z,99232.13
2022-09-05T22:47:07.816Z,99236.34
2022-09-05T22:49:36.434Z,99233.16
2022-09-05T22:52:07.163Z,99236.22
2022-09-05T22:54:35.223Z,99229.81
2022-09-05T22:57:02.213Z,99238.53
2022-09-05T22:59:28.720Z,99231.53
2022-09-05T23:01:55.301Z,99225.47
2022-09-05T23:04:21.984Z,99221.94
2022-09-05T23:06:48.622Z,99212.06
2022-09-05T23:09:15.127Z,99216.13
2022-09-05T23:11:41.761Z,99216.97
2022-09-05T23:14:08.255Z,99219.44
2022-09-05T23:16:34.802Z,99216.13
2022-09-05T23:19:01.535Z,99226.38
2022-09-05T23:21:28.224Z,99226.59
2022-09-05T23:23:54.762Z,99225.91
2022-09-05T23:26:22.123Z,99222.25
2022-09-05T23:28:48.666Z,99217.88
2022-09-05T23:31:15.264Z,99217.63
2022-09-05T23:33:42.245Z,99217.63
2022-09-05T23:36:13.743Z,99211.41
2022-09-05T23:38:43.915Z,99212.63
2022-09-05T23:41:13.661Z,99209.94
2022-09-05T23:43:40.483Z,99207.28
2022-09-05T23:46:07.879Z,99202.75
2022-09-05T23:48:35.133Z,99205.59
2022-09-05T23:51:07.226Z,99201.94
2022-09-05T23:53:34.255Z,99200.25
2022-09-05T23:56:05.142Z,99204.28
2022-09-05T23:58:32.462Z,99202.59
